createdAt,value
2022-12-03T00:01:33.777Z,102176.23
2022-12-03T00:04:03.782Z,102172.22
2022-12-03T00:06:34.856Z,102172.27
2022-12-03T00:09:02.443Z,102168.65
2022-12-03T00:11:31.433Z,102165.55
2022-12-03T00:13:59.382Z,102169.20
2022-12-03T00:16:27.607Z,102170.83
2022-12-03T00:18:55.985Z,102168.83
2022-12-03T00:21:24.892Z,102170.57
2022-12-03T00:23:52.825Z,102169.47
2022-12-03T00:26:21.487Z,102167.83
2022-12-03T00:28:49.651Z,102167.89
2022-12-03T00:31:18.617Z,102168.19
2022-12-03T00:33:46.499Z,102167.09
2022-12-03T00:36:15.214Z,102167.55
2022-12-03T00:38:43.777Z,102167.36
2022-12-03T00:41:13.075Z,102167.36
2022-12-03T00:43:40.657Z,102166.57
2022-12-03T00:46:09.517Z,102167.02
2022-12-03T00:48:37.484Z,102159.22
2022-12-03T00:51:06.145Z,102163.76
2022-12-03T00:53:35.655Z,102161.09
2022-12-03T00:56:02.801Z,102163.77
2022-12-03T00:58:31.225Z,102160.60
2022-12-03T01:00:59.553Z,102161.59
2022-12-03T01:03:29.400Z,102163.35
2022-12-03T01:05:56.406Z,102164.68
2022-12-03T01:08:24.925Z,102162.54
2022-12-03T01:10:53.215Z,102161.76
2022-12-03T01:13:21.678Z,102164.08
2022-12-03T01:15:50.197Z,102168.14
2022-12-03T01:18:18.553Z,102169.80
2022-12-03T01:20:46.923Z,102168.05
2022-12-03T01:23:15.526Z,102172.70
2022-12-03T01:25:43.952Z,102167.48
2022-12-03T01:28:12.332Z,102169.02
2022-12-03T01:31:00.616Z,102164.98
2022-12-03T01:33:30.435Z,102161.94
2022-12-03T01:36:00.184Z,102161.05
2022-12-03T01:38:29.980Z,102157.32
2022-12-03T01:40:59.843Z,102163.09
2022-12-03T01:43:29.989Z,102161.40
2022-12-03T01:45:59.776Z,102162.66
2022-12-03T01:48:37.766Z,102160.62
2022-12-03T01:51:08.079Z,102160.29
2022-12-03T01:53:37.911Z,102160.34
2022-12-03T01:56:12.229Z,102153.21
2022-12-03T01:58:43.586Z,102155.72
2022-12-03T02:01:19.383Z,102159.05
2022-12-03T02:03:49.349Z,102153.40
2022-12-03T02:06:30.392Z,102153.77
2022-12-03T02:09:00.262Z,102156.45
2022-12-03T02:11:39.448Z,102156.62
2022-12-03T02:14:14.032Z,102155.18
2022-12-03T02:16:42.898Z,102154.19
2022-12-03T02:19:25.294Z,102152.92
2022-12-03T02:22:33.902Z,102156.36
2022-12-03T02:25:13.837Z,102155.31
2022-12-03T02:27:44.870Z,102156.39
2022-12-03T02:30:20.638Z,102154.65
2022-12-03T02:32:53.214Z,102154.52
2022-12-03T02:35:34.015Z,102158.48
2022-12-03T02:38:27.089Z,102155.25
2022-12-03T02:41:04.797Z,102159.96
2022-12-03T02:43:34.633Z,102155.11
2022-12-03T02:46:07.947Z,102154.20
2022-12-03T02:48:41.833Z,102157.02
2022-12-03T02:51:11.149Z,102154.52
2022-12-03T02:53:46.770Z,102158.70
2022-12-03T02:56:20.792Z,102154.41
2022-12-03T02:58:53.707Z,102153.66
2022-12-03T03:01:21.184Z,102154.62
2022-12-03T03:03:51.151Z,102151.90
2022-12-03T03:06:21.895Z,102154.39
2022-12-03T03:08:51.496Z,102156.89
2022-12-03T03:11:21.314Z,102151.93
2022-12-03T03:13:51.169Z,102153.08
2022-12-03T03:16:21.331Z,102149.64
2022-12-03T03:18:51.168Z,102151.75
2022-12-03T03:21:20.985Z,102146.91
2022-12-03T03:23:50.878Z,102148.55
2022-12-03T03:26:19.917Z,102143.34
2022-12-03T03:28:51.066Z,102143.82
2022-12-03T03:31:24.386Z,102144.09
2022-12-03T03:33:52.475Z,102138.36
2022-12-03T03:36:23.341Z,102140.38
2022-12-03T03:38:53.315Z,102138.86
2022-12-03T03:41:25.622Z,102138.55
2022-12-03T03:43:56.246Z,102136.23
2022-12-03T03:46:28.812Z,102133.63
2022-12-03T03:48:58.041Z,102133.51
2022-12-03T03:51:28.340Z,102130.92
2022-12-03T03:53:58.736Z,102131.71
2022-12-03T03:56:28.617Z,102128.14
2022-12-03T03:58:58.653Z,102126.91
2022-12-03T04:01:29.863Z,102125.98
2022-12-03T04:03:59.767Z,102120.85
2022-12-03T04:06:28.494Z,102119.95
2022-12-03T04:08:55.902Z,102119.65
2022-12-03T04:11:42.777Z,102115.02
2022-12-03T04:14:12.616Z,102115.44
2022-12-03T04:16:42.477Z,102113.49
2022-12-03T04:19:11.934Z,102109.48
2022-12-03T04:22:00.340Z,102106.61
2022-12-03T04:24:30.088Z,102105.89
2022-12-03T04:27:18.613Z,102104.66
2022-12-03T04:29:48.457Z,102107.23
2022-12-03T04:32:36.586Z,102105.64
2022-12-03T04:35:25.724Z,102104.90
2022-12-03T04:37:55.536Z,102103.85
2022-12-03T04:40:43.962Z,102107.44
2022-12-03T04:43:13.743Z,102102.99
2022-12-03T04:45:43.619Z,102103.88
2022-12-03T04:48:13.486Z,102105.96
2022-12-03T04:50:43.429Z,102105.45
2022-12-03T04:53:12.916Z,102101.50
2022-12-03T04:55:42.752Z,102100.81
2022-12-03T04:58:12.535Z,102098.70
2022-12-03T05:00:42.327Z,102095.33
2022-12-03T05:03:12.049Z,102093.81
2022-12-03T05:05:41.727Z,102094.66
2022-12-03T05:08:11.446Z,102092.66
2022-12-03T05:10:41.271Z,102091.06
2022-12-03T05:13:10.957Z,102090.01
2022-12-03T05:15:39.946Z,102088.84
2022-12-03T05:18:08.470Z,102085.73
2022-12-03T05:20:44.786Z,102080.48
2022-12-03T05:23:19.605Z,102078.96
2022-12-03T05:25:46.327Z,102079.23
2022-12-03T05:28:13.706Z,102078.92
2022-12-03T05:30:43.541Z,102076.70
2022-12-03T05:33:13.755Z,102076.29
2022-12-03T05:35:43.597Z,102076.95
2022-12-03T05:38:13.675Z,102080.55
2022-12-03T05:40:44.347Z,102077.58
2022-12-03T05:43:13.788Z,102075.98
2022-12-03T05:45:45.237Z,102077.52
2022-12-03T05:48:16.849Z,102075.91
2022-12-03T05:50:46.987Z,102077.39
2022-12-03T05:53:17.521Z,102075.46
2022-12-03T05:55:47.016Z,102071.88
2022-12-03T05:58:16.915Z,102072.10
2022-12-03T06:00:46.635Z,102072.23
2022-12-03T06:03:16.479Z,102069.94
2022-12-03T06:05:46.305Z,102068.80
2022-12-03T06:08:16.183Z,102066.98
2022-12-03T06:10:46.029Z,102064.27
2022-12-03T06:13:15.948Z,102066.05
2022-12-03T06:15:45.698Z,102069.48
2022-12-03T06:18:15.665Z,102072.27
2022-12-03T06:20:45.427Z,102073.60
2022-12-03T06:23:15.191Z,102072.73
2022-12-03T06:25:44.884Z,102073.92
2022-12-03T06:28:14.596Z,102073.06
2022-12-03T06:30:44.517Z,102074.08
2022-12-03T06:33:14.267Z,102073.45
2022-12-03T06:35:44.111Z,102070.88
2022-12-03T06:38:13.880Z,102073.14
2022-12-03T06:40:43.732Z,102072.58
2022-12-03T06:43:13.654Z,102073.63
2022-12-03T06:45:47.721Z,102075.40
2022-12-03T06:48:16.639Z,102075.20
2022-12-03T06:50:43.862Z,102073.65
2022-12-03T06:53:13.588Z,102071.36
2022-12-03T06:55:43.617Z,102072.12
2022-12-03T06:58:13.450Z,102068.63
2022-12-03T07:00:43.296Z,102072.89
2022-12-03T07:03:13.067Z,102073.27
2022-12-03T07:05:42.857Z,102070.45
2022-12-03T07:08:12.896Z,102070.60
2022-12-03T07:10:42.902Z,102067.77
2022-12-03T07:13:12.645Z,102072.07
2022-12-03T07:15:42.695Z,102071.88
2022-12-03T07:18:12.476Z,102069.48
2022-12-03T07:20:42.357Z,102070.56
2022-12-03T07:23:12.041Z,102073.06
2022-12-03T07:25:41.798Z,102072.30
2022-12-03T07:28:11.542Z,102072.96
2022-12-03T07:30:41.302Z,102071.52
2022-12-03T07:33:11.072Z,102074.58
2022-12-03T07:35:40.871Z,102074.65
2022-12-03T07:38:10.618Z,102078.36
2022-12-03T07:40:40.322Z,102072.03
2022-12-03T07:43:10.259Z,102076.14
2022-12-03T07:45:39.961Z,102070.59
2022-12-03T07:48:09.632Z,102072.58
2022-12-03T07:50:39.384Z,102071.60
2022-12-03T07:53:09.126Z,102072.83
2022-12-03T07:55:40.113Z,102068.23
2022-12-03T07:58:09.400Z,102068.97
2022-12-03T08:00:39.234Z,102067.69
2022-12-03T08:03:09.087Z,102066.70
2022-12-03T08:05:38.789Z,102064.44
2022-12-03T08:08:08.546Z,102059.48
2022-12-03T08:10:38.436Z,102064.06
2022-12-03T08:13:18.147Z,102060.04
2022-12-03T08:15:47.151Z,102060.75
2022-12-03T08:18:19.290Z,102057.70
2022-12-03T08:20:50.940Z,102057.50
2022-12-03T08:23:25.984Z,102056.05
2022-12-03T08:25:55.710Z,102048.66
2022-12-03T08:28:29.055Z,102050.19
2022-12-03T08:31:12.551Z,102042.91
2022-12-03T08:33:41.851Z,102041.67
2022-12-03T08:36:22.157Z,102044.06
2022-12-03T08:38:59.059Z,102044.92
2022-12-03T08:41:49.069Z,102046.66
2022-12-03T08:44:27.167Z,102045.44
2022-12-03T08:47:22.598Z,102046.26
2022-12-03T08:49:58.322Z,102046.07
2022-12-03T08:52:34.640Z,102045.45
2022-12-03T08:55:37.010Z,102042.46
2022-12-03T08:58:15.548Z,102042.03
2022-12-03T09:00:44.480Z,102041.67
2022-12-03T09:03:19.226Z,102039.09
2022-12-03T09:05:48.928Z,102046.25
2022-12-03T09:08:18.757Z,102044.52
2022-12-03T09:10:48.624Z,102043.21
2022-12-03T09:13:18.508Z,102040.90
2022-12-03T09:15:48.515Z,102042.02
2022-12-03T09:18:18.252Z,102042.60
2022-12-03T09:20:47.896Z,102038.05
2022-12-03T09:23:17.713Z,102034.27
2022-12-03T09:25:47.519Z,102027.67
2022-12-03T09:28:17.323Z,102026.25
2022-12-03T09:30:47.073Z,102024.73
2022-12-03T09:33:16.838Z,102023.15
2022-12-03T09:35:46.760Z,102026.24
2022-12-03T09:38:16.661Z,102021.95
2022-12-03T09:40:46.510Z,102018.24
2022-12-03T09:43:16.853Z,102020.64
2022-12-03T09:45:49.551Z,102023.35
2022-12-03T09:48:21.616Z,102022.80
2022-12-03T09:50:52.215Z,102020.27
2022-12-03T09:53:26.639Z,102021.20
2022-12-03T09:55:59.979Z,102019.77
2022-12-03T09:58:34.594Z,102016.86
2022-12-03T10:01:14.948Z,102012.30
2022-12-03T10:03:49.701Z,102004.05
2022-12-03T10:06:24.288Z,102003.08
2022-12-03T10:08:55.645Z,102003.09
2022-12-03T10:11:27.371Z,102002.38
2022-12-03T10:13:58.869Z,102005.42
2022-12-03T10:16:30.739Z,102001.30
2022-12-03T10:19:01.460Z,102003.42
2022-12-03T10:21:39.507Z,101994.86
2022-12-03T10:24:31.716Z,101994.73
2022-12-03T10:27:21.189Z,101990.02
2022-12-03T10:30:00.204Z,101986.38
2022-12-03T10:32:50.093Z,101989.72
2022-12-03T10:35:25.931Z,101992.95
2022-12-03T10:38:04.649Z,101990.16
2022-12-03T10:40:38.700Z,101990.70
2022-12-03T10:43:25.495Z,101986.57
2022-12-03T10:46:04.085Z,101977.57
2022-12-03T10:48:34.048Z,101978.95
2022-12-03T10:51:21.094Z,101980.79
2022-12-03T10:53:51.099Z,101980.63
2022-12-03T10:56:26.202Z,101979.40
2022-12-03T10:58:56.651Z,101976.20
2022-12-03T11:01:26.911Z,101973.86
2022-12-03T11:04:05.957Z,101975.45
2022-12-03T11:06:35.612Z,101974.44
2022-12-03T11:09:14.129Z,101969.01
2022-12-03T11:11:44.296Z,101967.06
2022-12-03T11:14:50.716Z,101968.23
2022-12-03T11:17:51.226Z,101962.69
2022-12-03T11:20:22.910Z,101961.86
2022-12-03T11:22:55.787Z,101955.05
2022-12-03T11:25:25.624Z,101953.79
2022-12-03T11:28:13.677Z,101949.30
2022-12-03T11:30:48.939Z,101945.56
2022-12-03T11:33:34.016Z,101942.58
2022-12-03T11:36:03.659Z,101940.27
2022-12-03T11:38:55.425Z,101938.55
2022-12-03T11:41:34.943Z,101936.95
2022-12-03T11:44:31.288Z,101938.59
2022-12-03T11:47:15.389Z,101938.11
2022-12-03T11:49:47.984Z,101936.30
2022-12-03T11:52:44.362Z,101933.63
2022-12-03T11:55:21.492Z,101929.91
2022-12-03T11:57:59.346Z,101930.52
2022-12-03T12:00:29.570Z,101930.58
2022-12-03T12:02:59.381Z,101928.95
2022-12-03T12:05:35.525Z,101930.80
2022-12-03T12:08:03.946Z,101932.77
2022-12-03T12:10:48.526Z,101931.14
2022-12-03T12:13:36.656Z,101931.36
2022-12-03T12:16:08.460Z,101930.29
2022-12-03T12:18:54.906Z,101926.80
2022-12-03T12:21:48.069Z,101924.31
2022-12-03T12:24:29.281Z,101921.46
2022-12-03T12:27:22.745Z,101922.44
2022-12-03T12:30:01.988Z,101923.70
2022-12-03T12:32:44.751Z,101918.52
2022-12-03T12:35:27.748Z,101911.89
2022-12-03T12:38:01.298Z,101911.59
2022-12-03T12:40:35.113Z,101913.42
2022-12-03T12:43:14.349Z,101908.16
2022-12-03T12:45:44.057Z,101911.06
2022-12-03T12:48:28.497Z,101913.04
2022-12-03T12:51:15.217Z,101908.09
2022-12-03T12:53:45.407Z,101906.97
2022-12-03T12:56:32.451Z,101902.62
2022-12-03T12:59:12.559Z,101897.77
2022-12-03T13:01:45.711Z,101889.06
2022-12-03T13:04:20.894Z,101883.64
2022-12-03T13:06:54.121Z,101888.98
2022-12-03T13:09:27.083Z,101878.55
2022-12-03T13:12:04.007Z,101881.05
2022-12-03T13:14:37.738Z,101878.38
2022-12-03T13:17:19.149Z,101878.02
2022-12-03T13:19:54.711Z,101879.39
2022-12-03T13:22:28.160Z,101868.73
2022-12-03T13:25:07.858Z,101867.31
2022-12-03T13:27:37.762Z,101866.23
2022-12-03T13:30:16.478Z,101870.16
2022-12-03T13:32:46.240Z,101869.69
2022-12-03T13:35:35.580Z,101865.70
2022-12-03T13:38:17.199Z,101866.25
2022-12-03T13:40:57.918Z,101866.90
2022-12-03T13:43:32.508Z,101862.86
2022-12-03T13:46:02.314Z,101864.80
2022-12-03T13:48:36.067Z,101863.88
2022-12-03T13:51:27.761Z,101860.75
2022-12-03T13:53:59.396Z,101862.39
2022-12-03T13:56:32.771Z,101859.88
2022-12-03T13:59:04.035Z,101856.27
2022-12-03T14:01:34.556Z,101858.61
2022-12-03T14:04:04.819Z,101864.70
2022-12-03T14:06:34.706Z,101862.37
2022-12-03T14:09:04.081Z,101860.34
2022-12-03T14:11:50.534Z,101860.53
2022-12-03T14:14:20.372Z,101864.91
2022-12-03T14:16:52.196Z,101864.84
2022-12-03T14:19:25.268Z,101867.84
2022-12-03T14:21:55.300Z,101864.75
2022-12-03T14:24:25.191Z,101864.27
2022-12-03T14:26:54.911Z,101865.51
2022-12-03T14:29:23.313Z,101867.28
2022-12-03T14:31:51.821Z,101866.13
2022-12-03T14:34:21.001Z,101856.61
2022-12-03T14:36:48.761Z,101857.89
2022-12-03T14:39:17.125Z,101858.09
2022-12-03T14:42:04.461Z,101855.27
2022-12-03T14:44:34.063Z,101856.08
2022-12-03T14:47:03.973Z,101858.17
2022-12-03T14:49:34.065Z,101858.84
2022-12-03T14:52:08.478Z,101862.09
2022-12-03T14:54:42.860Z,101858.88
2022-12-03T14:57:14.820Z,101857.87
2022-12-03T14:59:47.098Z,101859.67
2022-12-03T15:02:17.040Z,101858.60
2022-12-03T15:04:47.062Z,101859.27
2022-12-03T15:07:17.038Z,101861.41
2022-12-03T15:09:46.968Z,101862.66
2022-12-03T15:12:17.680Z,101863.59
2022-12-03T15:14:48.045Z,101864.80
2022-12-03T15:17:25.423Z,101870.84
2022-12-03T15:19:59.436Z,101873.08
2022-12-03T15:22:29.533Z,101871.92
2022-12-03T15:24:59.321Z,101870.58
2022-12-03T15:27:29.365Z,101866.70
2022-12-03T15:29:59.059Z,101868.23
2022-12-03T15:32:29.440Z,101870.52
2022-12-03T15:34:59.179Z,101872.69
2022-12-03T15:37:29.409Z,101869.86
2022-12-03T15:39:59.402Z,101865.52
2022-12-03T15:42:29.704Z,101866.06
2022-12-03T15:44:59.464Z,101863.52
2022-12-03T15:47:29.596Z,101858.73
2022-12-03T15:49:59.506Z,101862.54
2022-12-03T15:52:29.520Z,101858.13
2022-12-03T15:54:59.829Z,101857.28
2022-12-03T15:57:31.165Z,101858.42
2022-12-03T16:00:00.139Z,101860.77
2022-12-03T16:02:33.869Z,101854.77
2022-12-03T16:05:08.338Z,101855.90
2022-12-03T16:07:39.110Z,101856.52
2022-12-03T16:10:11.962Z,101858.18
2022-12-03T16:12:40.432Z,101854.00
2022-12-03T16:15:09.628Z,101852.27
2022-12-03T16:17:37.372Z,101857.09
2022-12-03T16:20:07.299Z,101851.36
2022-12-03T16:22:34.136Z,101851.05
2022-12-03T16:25:03.270Z,101847.45
2022-12-03T16:27:31.448Z,101849.20
2022-12-03T16:29:59.765Z,101848.88
2022-12-03T16:32:28.002Z,101844.44
2022-12-03T16:34:56.747Z,101844.39
2022-12-03T16:37:24.911Z,101846.27
2022-12-03T16:39:53.469Z,101843.66
2022-12-03T16:42:22.557Z,101846.77
2022-12-03T16:45:02.981Z,101848.43
2022-12-03T16:47:34.409Z,101847.33
2022-12-03T16:50:09.185Z,101847.48
2022-12-03T16:52:38.568Z,101852.86
2022-12-03T16:55:09.326Z,101851.70
2022-12-03T16:57:38.886Z,101849.59
2022-12-03T17:00:09.591Z,101850.38
2022-12-03T17:02:39.179Z,101849.80
2022-12-03T17:05:09.049Z,101848.95
2022-12-03T17:07:39.294Z,101846.73
2022-12-03T17:10:10.052Z,101847.77
2022-12-03T17:13:07.687Z,101849.70
2022-12-03T17:15:30.924Z,101847.41
2022-12-03T17:18:00.965Z,101850.35
2022-12-03T17:20:32.381Z,101844.45
2022-12-03T17:23:02.255Z,101842.80
2022-12-03T17:25:32.519Z,101840.02
2022-12-03T17:28:02.614Z,101844.83
2022-12-03T17:30:32.525Z,101841.86
2022-12-03T17:33:02.389Z,101842.31
2022-12-03T17:35:32.462Z,101844.00
2022-12-03T17:38:02.615Z,101839.51
2022-12-03T17:40:32.415Z,101833.77
2022-12-03T17:43:02.217Z,101834.77
2022-12-03T17:45:32.040Z,101830.73
2022-12-03T17:48:01.815Z,101831.27
2022-12-03T17:50:31.522Z,101831.35
2022-12-03T17:53:01.335Z,101831.60
2022-12-03T17:55:39.755Z,101832.55
2022-12-03T17:58:13.437Z,101835.94
2022-12-03T18:00:44.022Z,101830.08
2022-12-03T18:03:13.546Z,101830.92
2022-12-03T18:05:43.313Z,101834.63
2022-12-03T18:08:13.172Z,101833.95
2022-12-03T18:10:43.069Z,101833.56
2022-12-03T18:13:12.865Z,101830.73
2022-12-03T18:15:42.651Z,101827.23
2022-12-03T18:18:12.669Z,101827.83
2022-12-03T18:20:42.582Z,101825.11
2022-12-03T18:23:12.956Z,101834.89
2022-12-03T18:25:43.005Z,101833.61
2022-12-03T18:28:12.735Z,101832.22
2022-12-03T18:30:45.145Z,101832.02
2022-12-03T18:33:21.232Z,101829.45
2022-12-03T18:35:57.703Z,101832.60
2022-12-03T18:38:32.871Z,101832.52
2022-12-03T18:41:02.655Z,101830.25
2022-12-03T18:43:32.934Z,101830.75
2022-12-03T18:46:01.017Z,101828.08
2022-12-03T18:48:29.328Z,101830.61
2022-12-03T18:50:57.764Z,101828.08
2022-12-03T18:53:26.266Z,101826.27
2022-12-03T18:55:54.510Z,101823.35
2022-12-03T18:58:23.030Z,101822.49
2022-12-03T19:00:51.498Z,101826.92
2022-12-03T19:03:19.913Z,101829.58
2022-12-03T19:05:48.252Z,101826.88
2022-12-03T19:08:16.904Z,101825.77
2022-12-03T19:10:45.542Z,101827.19
2022-12-03T19:13:13.512Z,101827.98
2022-12-03T19:15:41.968Z,101829.83
2022-12-03T19:18:10.426Z,101829.30
2022-12-03T19:20:41.884Z,101829.44
2022-12-03T19:23:10.483Z,101832.39
2022-12-03T19:25:38.994Z,101831.98
2022-12-03T19:28:07.369Z,101827.73
2022-12-03T19:30:35.520Z,101828.96
2022-12-03T19:33:03.961Z,101830.65
2022-12-03T19:35:32.771Z,101832.13
2022-12-03T19:38:00.883Z,101832.88
2022-12-03T19:40:29.953Z,101834.40
2022-12-03T19:42:57.642Z,101837.75
2022-12-03T19:45:26.096Z,101833.98
2022-12-03T19:47:54.535Z,101834.48
2022-12-03T19:50:23.701Z,101832.65
2022-12-03T19:52:51.514Z,101833.11
2022-12-03T19:55:20.445Z,101833.98
2022-12-03T19:57:48.819Z,101832.51
2022-12-03T20:00:16.834Z,101834.73
2022-12-03T20:02:48.451Z,101835.36
2022-12-03T20:05:18.419Z,101831.25
2022-12-03T20:07:48.214Z,101830.27
2022-12-03T20:10:18.227Z,101829.50
2022-12-03T20:12:48.045Z,101833.27
2022-12-03T20:15:17.858Z,101836.89
2022-12-03T20:17:47.662Z,101832.23
2022-12-03T20:20:17.551Z,101829.97
2022-12-03T20:22:47.254Z,101829.27
2022-12-03T20:25:17.011Z,101829.64
2022-12-03T20:27:46.665Z,101832.69
2022-12-03T20:30:16.607Z,101831.36
2022-12-03T20:32:46.460Z,101834.70
2022-12-03T20:35:16.252Z,101836.02
2022-12-03T20:37:46.052Z,101835.14
2022-12-03T20:40:15.871Z,101835.23
2022-12-03T20:42:48.268Z,101834.60
2022-12-03T20:45:18.038Z,101832.56
2022-12-03T20:47:47.934Z,101834.00
2022-12-03T20:50:17.838Z,101831.29
2022-12-03T20:53:03.624Z,101830.28
2022-12-03T20:55:37.329Z,101829.09
2022-12-03T20:58:07.057Z,101830.41
2022-12-03T21:00:36.787Z,101832.80
2022-12-03T21:03:06.631Z,101833.29
2022-12-03T21:05:36.379Z,101833.38
2022-12-03T21:08:06.201Z,101838.84
2022-12-03T21:10:45.943Z,101838.79
2022-12-03T21:13:18.808Z,101836.38
2022-12-03T21:15:48.642Z,101832.60
2022-12-03T21:18:18.740Z,101831.77
2022-12-03T21:20:48.524Z,101828.09
2022-12-03T21:23:18.352Z,101827.38
2022-12-03T21:25:48.102Z,101822.07
2022-12-03T21:28:17.892Z,101821.46
2022-12-03T21:30:47.588Z,101822.59
2022-12-03T21:33:17.397Z,101819.80
2022-12-03T21:35:47.135Z,101818.88
2022-12-03T21:38:16.954Z,101816.98
2022-12-03T21:40:48.416Z,101812.41
2022-12-03T21:43:18.417Z,101812.76
2022-12-03T21:45:49.308Z,101805.28
2022-12-03T21:48:20.477Z,101804.48
2022-12-03T21:51:14.674Z,101802.04
2022-12-03T21:53:46.291Z,101801.63
2022-12-03T21:56:19.165Z,101809.94
2022-12-03T21:58:48.868Z,101817.92
2022-12-03T22:01:21.997Z,101819.84
2022-12-03T22:03:51.164Z,101821.57
2022-12-03T22:06:19.047Z,101819.92
2022-12-03T22:08:48.126Z,101818.52
2022-12-03T22:11:22.840Z,101815.94
2022-12-03T22:13:54.419Z,101812.42
2022-12-03T22:16:24.619Z,101803.34
2022-12-03T22:18:54.528Z,101804.49
2022-12-03T22:21:25.612Z,101806.36
2022-12-03T22:23:56.431Z,101804.32
2022-12-03T22:26:26.177Z,101803.06
2022-12-03T22:28:55.984Z,101801.83
2022-12-03T22:31:25.846Z,101801.88
2022-12-03T22:33:55.693Z,101805.27
2022-12-03T22:36:25.406Z,101807.83
2022-12-03T22:38:55.426Z,101802.14
2022-12-03T22:41:25.126Z,101797.69
2022-12-03T22:43:54.876Z,101797.84
2022-12-03T22:46:24.774Z,101797.02
2022-12-03T22:48:54.556Z,101795.48
2022-12-03T22:51:26.344Z,101790.15
2022-12-03T22:53:59.122Z,101789.48
2022-12-03T22:56:30.453Z,101786.73
2022-12-03T22:59:00.287Z,101787.77
2022-12-03T23:01:33.793Z,101788.16
2022-12-03T23:04:01.994Z,101792.13
2022-12-03T23:06:31.788Z,101789.73
2022-12-03T23:09:03.896Z,101785.67
2022-12-03T23:11:34.414Z,101778.30
2022-12-03T23:14:04.563Z,101778.73
2022-12-03T23:16:34.389Z,101773.42
2022-12-03T23:19:05.250Z,101773.80
2022-12-03T23:21:35.970Z,101772.81
2022-12-03T23:24:06.280Z,101771.98
2022-12-03T23:26:38.452Z,101772.65
2022-12-03T23:29:08.525Z,101770.42
2022-12-03T23:31:38.445Z,101770.45
2022-12-03T23:34:08.381Z,101760.51
2022-12-03T23:36:38.060Z,101755.96
2022-12-03T23:39:06.031Z,101756.45
2022-12-03T23:41:33.684Z,101757.72
2022-12-03T23:44:03.443Z,101760.60
2022-12-03T23:46:33.251Z,101761.70
2022-12-03T23:49:03.072Z,101756.30
2022-12-03T23:51:33.309Z,101762.45
2022-12-03T23:54:02.937Z,101757.05
2022-12-03T23:56:32.731Z,101756.75
2022-12-03T23:59:02.539Z,101751.64
